sensor_id;sensor_type;location;lat;lon;timestamp;pressure;altitude;pressure_sealevel;temperature;humidity
46392;BME280;32098;49.448;7.904;2023-04-26T00:00:29;98251.84;;;2.24;72.89
46392;BME280;32098;49.448;7.904;2023-04-26T00:02:57;98233.25;;;2.03;73.25
46392;BME280;32098;49.448;7.904;2023-04-26T00:05:25;98209.56;;;1.72;73.59
46392;BME280;32098;49.448;7.904;2023-04-26T00:07:52;98273.00;;;2.16;73.93
46392;BME280;32098;49.448;7.904;2023-04-26T00:10:19;98271.88;;;2.10;73.56
46392;BME280;32098;49.448;7.904;2023-04-26T00:12:46;98301.84;;;2.32;74.96
46392;BME280;32098;49.448;7.904;2023-04-26T00:15:13;98156.44;;;1.15;74.74
46392;BME280;32098;49.448;7.904;2023-04-26T00:17:40;98279.88;;;1.94;75.61
46392;BME280;32098;49.448;7.904;2023-04-26T00:20:10;98270.41;;;1.77;75.36
46392;BME280;32098;49.448;7.904;2023-04-26T00:22:39;98258.75;;;1.72;76.53
46392;BME280;32098;49.448;7.904;2023-04-26T00:25:06;98256.34;;;1.62;75.29
46392;BME280;32098;49.448;7.904;2023-04-26T00:27:33;98243.72;;;1.58;74.61
46392;BME280;32098;49.448;7.904;2023-04-26T00:30:00;98294.94;;;1.78;74.60
46392;BME280;32098;49.448;7.904;2023-04-26T00:32:26;98304.44;;;1.87;75.61
46392;BME280;32098;49.448;7.904;2023-04-26T00:34:53;98306.13;;;1.80;74.90
46392;BME280;32098;49.448;7.904;2023-04-26T00:37:20;98271.31;;;1.62;74.55
46392;BME280;32098;49.448;7.904;2023-04-26T00:39:49;98280.59;;;1.80;74.67
46392;BME280;32098;49.448;7.904;2023-04-26T00:42:16;98280.28;;;1.83;74.33
46392;BME280;32098;49.448;7.904;2023-04-26T00:44:45;98296.78;;;2.00;74.14
46392;BME280;32098;49.448;7.904;2023-04-26T00:47:11;98300.78;;;1.96;73.57
46392;BME280;32098;49.448;7.904;2023-04-26T00:49:40;98266.00;;;1.70;73.07
46392;BME280;32098;49.448;7.904;2023-04-26T00:52:06;98270.03;;;1.58;73.04
46392;BME280;32098;49.448;7.904;2023-04-26T00:54:33;98306.09;;;1.88;72.66
46392;BME280;32098;49.448;7.904;2023-04-26T00:57:01;98301.34;;;1.83;73.13
46392;BME280;32098;49.448;7.904;2023-04-26T00:59:29;98303.84;;;1.69;74.06
46392;BME280;32098;49.448;7.904;2023-04-26T01:01:57;98258.25;;;1.37;74.30
46392;BME280;32098;49.448;7.904;2023-04-26T01:04:24;98264.16;;;1.47;74.70
46392;BME280;32098;49.448;7.904;2023-04-26T01:06:55;98311.81;;;1.61;74.49
46392;BME280;32098;49.448;7.904;2023-04-26T01:09:22;98288.19;;;1.36;75.62
46392;BME280;32098;49.448;7.904;2023-04-26T01:11:49;98213.88;;;0.96;75.45
46392;BME280;32098;49.448;7.904;2023-04-26T01:14:17;98310.69;;;1.47;75.43
46392;BME280;32098;49.448;7.904;2023-04-26T01:16:44;98243.69;;;1.19;74.23
46392;BME280;32098;49.448;7.904;2023-04-26T01:19:13;98269.09;;;1.42;74.44
46392;BME280;32098;49.448;7.904;2023-04-26T01:21:41;98301.97;;;1.46;74.65
46392;BME280;32098;49.448;7.904;2023-04-26T01:24:11;98298.91;;;1.27;75.51
46392;BME280;32098;49.448;7.904;2023-04-26T01:26:39;98298.41;;;1.31;75.43
46392;BME280;32098;49.448;7.904;2023-04-26T01:29:14;98278.75;;;1.03;74.36
46392;BME280;32098;49.448;7.904;2023-04-26T01:31:45;98287.63;;;1.10;75.84
46392;BME280;32098;49.448;7.904;2023-04-26T01:34:12;98300.91;;;1.17;75.08
46392;BME280;32098;49.448;7.904;2023-04-26T01:36:39;98302.88;;;1.23;74.11
46392;BME280;32098;49.448;7.904;2023-04-26T01:39:06;98269.72;;;0.98;73.74
46392;BME280;32098;49.448;7.904;2023-04-26T01:41:35;98235.75;;;0.72;74.31
46392;BME280;32098;49.448;7.904;2023-04-26T01:44:02;98274.84;;;0.83;74.69
46392;BME280;32098;49.448;7.904;2023-04-26T01:46:29;98240.69;;;0.67;75.41
46392;BME280;32098;49.448;7.904;2023-04-26T01:48:56;98246.78;;;0.75;74.87
46392;BME280;32098;49.448;7.904;2023-04-26T01:51:25;98277.81;;;0.88;74.67
46392;BME280;32098;49.448;7.904;2023-04-26T01:53:52;98268.28;;;0.79;74.53
46392;BME280;32098;49.448;7.904;2023-04-26T01:56:19;98308.66;;;0.94;73.94
46392;BME280;32098;49.448;7.904;2023-04-26T01:58:46;98284.38;;;0.76;73.98
46392;BME280;32098;49.448;7.904;2023-04-26T02:01:13;98139.97;;;-0.13;73.82
46392;BME280;32098;49.448;7.904;2023-04-26T02:03:43;98292.63;;;0.73;74.21
46392;BME280;32098;49.448;7.904;2023-04-26T02:06:11;98302.59;;;0.94;74.17
46392;BME280;32098;49.448;7.904;2023-04-26T02:08:37;98215.09;;;0.29;73.80
46392;BME280;32098;49.448;7.904;2023-04-26T02:11:05;98264.22;;;0.60;73.73
46392;BME280;32098;49.448;7.904;2023-04-26T02:13:34;98191.16;;;-0.01;74.50
46392;BME280;32098;49.448;7.904;2023-04-26T02:16:01;98200.19;;;0.13;75.00
46392;BME280;32098;49.448;7.904;2023-04-26T02:18:28;98211.53;;;0.05;74.33
46392;BME280;32098;49.448;7.904;2023-04-26T02:20:55;98242.53;;;0.18;75.38
46392;BME280;32098;49.448;7.904;2023-04-26T02:23:21;98238.75;;;0.04;75.03
46392;BME280;32098;49.448;7.904;2023-04-26T02:25:49;98278.16;;;0.20;74.85
46392;BME280;32098;49.448;7.904;2023-04-26T02:28:16;98250.41;;;0.10;74.60
46392;BME280;32098;49.448;7.904;2023-04-26T02:30:43;98248.41;;;-0.04;76.70
46392;BME280;32098;49.448;7.904;2023-04-26T02:33:10;98297.19;;;0.22;77.22
46392;BME280;32098;49.448;7.904;2023-04-26T02:35:37;98215.41;;;-0.31;77.50
46392;BME280;32098;49.448;7.904;2023-04-26T02:38:04;98278.47;;;0.34;76.44
46392;BME280;32098;49.448;7.904;2023-04-26T02:40:31;98209.22;;;0.02;74.89
46392;BME280;32098;49.448;7.904;2023-04-26T02:42:58;98223.66;;;0.14;74.96
46392;BME280;32098;49.448;7.904;2023-04-26T02:45:25;98297.72;;;0.50;74.94
46392;BME280;32098;49.448;7.904;2023-04-26T02:47:52;98279.31;;;0.34;73.97
46392;BME280;32098;49.448;7.904;2023-04-26T02:50:19;98304.25;;;0.54;73.75
46392;BME280;32098;49.448;7.904;2023-04-26T02:52:47;98284.06;;;0.31;74.63
46392;BME280;32098;49.448;7.904;2023-04-26T02:55:13;98263.34;;;-0.05;75.61
46392;BME280;32098;49.448;7.904;2023-04-26T02:57:41;98225.91;;;-0.07;75.63
46392;BME280;32098;49.448;7.904;2023-04-26T03:00:12;98298.84;;;0.40;74.92
46392;BME280;32098;49.448;7.904;2023-04-26T03:02:40;98254.34;;;0.22;74.32
46392;BME280;32098;49.448;7.904;2023-04-26T03:05:07;98308.69;;;0.54;74.66
46392;BME280;32098;49.448;7.904;2023-04-26T03:07:35;98303.09;;;0.49;74.43
46392;BME280;32098;49.448;7.904;2023-04-26T03:10:04;98283.06;;;0.32;74.00
46392;BME280;32098;49.448;7.904;2023-04-26T03:12:32;98206.88;;;-0.17;73.70
46392;BME280;32098;49.448;7.904;2023-04-26T03:15:00;98307.56;;;0.40;73.56
46392;BME280;32098;49.448;7.904;2023-04-26T03:17:29;98308.38;;;0.33;73.78
46392;BME280;32098;49.448;7.904;2023-04-26T03:20:01;98306.88;;;0.30;74.36
46392;BME280;32098;49.448;7.904;2023-04-26T03:22:28;98291.28;;;0.12;74.64
46392;BME280;32098;49.448;7.904;2023-04-26T03:24:57;98299.34;;;0.35;74.36
46392;BME280;32098;49.448;7.904;2023-04-26T03:27:28;98270.63;;;0.26;74.09
46392;BME280;32098;49.448;7.904;2023-04-26T03:29:56;98292.59;;;0.33;74.72
46392;BME280;32098;49.448;7.904;2023-04-26T03:32:24;98298.50;;;0.27;73.55
46392;BME280;32098;49.448;7.904;2023-04-26T03:34:51;98247.09;;;-0.08;74.03
46392;BME280;32098;49.448;7.904;2023-04-26T03:37:18;98211.91;;;-0.40;74.79
46392;BME280;32098;49.448;7.904;2023-04-26T03:39:52;98260.34;;;-0.26;74.88
46392;BME280;32098;49.448;7.904;2023-04-26T03:42:21;98253.09;;;-0.32;75.04
46392;BME280;32098;49.448;7.904;2023-04-26T03:44:48;98225.03;;;-0.48;75.77
46392;BME280;32098;49.448;7.904;2023-04-26T03:47:14;98236.69;;;-0.42;75.84
46392;BME280;32098;49.448;7.904;2023-04-26T03:49:41;98172.59;;;-0.89;75.73
46392;BME280;32098;49.448;7.904;2023-04-26T03:52:09;98216.28;;;-0.64;76.33
46392;BME280;32098;49.448;7.904;2023-04-26T03:54:36;98253.09;;;-0.40;76.39
46392;BME280;32098;49.448;7.904;2023-04-26T03:57:03;98199.53;;;-0.71;76.42
46392;BME280;32098;49.448;7.904;2023-04-26T03:59:32;98215.34;;;-0.55;75.83
46392;BME280;32098;49.448;7.904;2023-04-26T04:01:59;98238.00;;;-0.38;75.92
46392;BME280;32098;49.448;7.904;2023-04-26T04:04:26;98284.00;;;-0.02;75.41
46392;BME280;32098;49.448;7.904;2023-04-26T04:06:53;98238.66;;;1.01;96.52
46392;BME280;32098;49.448;7.904;2023-04-26T04:09:20;98262.00;;;1.82;99.25
46392;BME280;32098;49.448;7.904;2023-04-26T04:11:47;98236.97;;;1.86;93.03
46392;BME280;32098;49.448;7.904;2023-04-26T04:14:13;98249.16;;;1.79;76.59
46392;BME280;32098;49.448;7.904;2023-04-26T04:16:40;98215.28;;;1.14;70.26
46392;BME280;32098;49.448;7.904;2023-04-26T04:19:08;98280.69;;;1.25;70.67
46392;BME280;32098;49.448;7.904;2023-04-26T04:21:35;98218.69;;;0.68;71.50
46392;BME280;32098;49.448;7.904;2023-04-26T04:24:04;98241.22;;;0.62;71.47
46392;BME280;32098;49.448;7.904;2023-04-26T04:26:31;98288.47;;;0.78;71.77
46392;BME280;32098;49.448;7.904;2023-04-26T04:28:58;98278.31;;;0.51;72.37
46392;BME280;32098;49.448;7.904;2023-04-26T04:31:36;98242.53;;;0.34;72.26
46392;BME280;32098;49.448;7.904;2023-04-26T04:34:07;98286.38;;;0.42;72.32
46392;BME280;32098;49.448;7.904;2023-04-26T04:36:36;98218.53;;;-0.19;73.32
46392;BME280;32098;49.448;7.904;2023-04-26T04:39:04;98262.06;;;0.23;73.31
46392;BME280;32098;49.448;7.904;2023-04-26T04:41:38;98277.66;;;0.17;74.25
46392;BME280;32098;49.448;7.904;2023-04-26T04:44:06;98299.84;;;0.31;74.16
46392;BME280;32098;49.448;7.904;2023-04-26T04:46:36;98278.94;;;0.21;74.10
46392;BME280;32098;49.448;7.904;2023-04-26T04:49:04;98284.72;;;0.24;73.75
46392;BME280;32098;49.448;7.904;2023-04-26T04:51:30;98317.72;;;0.51;73.79
46392;BME280;32098;49.448;7.904;2023-04-26T04:53:57;98291.28;;;0.45;73.41
46392;BME280;32098;49.448;7.904;2023-04-26T04:56:23;98303.28;;;0.55;73.25
46392;BME280;32098;49.448;7.904;2023-04-26T04:58:51;98184.59;;;-0.13;72.81
46392;BME280;32098;49.448;7.904;2023-04-26T05:01:20;98287.19;;;0.50;72.96
46392;BME280;32098;49.448;7.904;2023-04-26T05:03:51;98319.72;;;0.65;73.24
46392;BME280;32098;49.448;7.904;2023-04-26T05:06:22;98321.66;;;0.79;72.99
46392;BME280;32098;49.448;7.904;2023-04-26T05:08:48;98133.88;;;-0.54;73.20
46392;BME280;32098;49.448;7.904;2023-04-26T05:11:16;98254.19;;;0.23;73.38
46392;BME280;32098;49.448;7.904;2023-04-26T05:13:43;98324.13;;;0.97;73.37
46392;BME280;32098;49.448;7.904;2023-04-26T05:16:12;98295.19;;;1.05;72.59
46392;BME280;32098;49.448;7.904;2023-04-26T05:18:40;98281.53;;;1.10;71.96
46392;BME280;32098;49.448;7.904;2023-04-26T05:21:08;98289.34;;;1.34;71.29
46392;BME280;32098;49.448;7.904;2023-04-26T05:23:35;98327.59;;;1.61;71.11
46392;BME280;32098;49.448;7.904;2023-04-26T05:26:05;98303.72;;;1.62;70.39
46392;BME280;32098;49.448;7.904;2023-04-26T05:28:52;98322.75;;;2.11;70.08
46392;BME280;32098;49.448;7.904;2023-04-26T05:31:39;98297.41;;;2.33;69.46
46392;BME280;32098;49.448;7.904;2023-04-26T05:34:19;98323.53;;;2.88;68.38
46392;BME280;32098;49.448;7.904;2023-04-26T05:36:50;98324.69;;;3.22;66.91
46392;BME280;32098;49.448;7.904;2023-04-26T05:39:17;98317.88;;;3.57;66.15
46392;BME280;32098;49.448;7.904;2023-04-26T05:41:46;98322.66;;;3.97;65.54
46392;BME280;32098;49.448;7.904;2023-04-26T05:44:13;98334.28;;;4.53;64.46
46392;BME280;32098;49.448;7.904;2023-04-26T05:46:40;98282.75;;;4.70;63.24
46392;BME280;32098;49.448;7.904;2023-04-26T05:49:08;98280.88;;;4.92;62.04
46392;BME280;32098;49.448;7.904;2023-04-26T05:51:35;98266.03;;;5.25;61.67
46392;BME280;32098;49.448;7.904;2023-04-26T05:54:02;98326.16;;;6.00;59.97
46392;BME280;32098;49.448;7.904;2023-04-26T05:56:29;98324.44;;;6.33;59.75
46392;BME280;32098;49.448;7.904;2023-04-26T05:58:56;98332.28;;;6.67;59.01
46392;BME280;32098;49.448;7.904;2023-04-26T06:01:23;98335.16;;;6.92;58.13
46392;BME280;32098;49.448;7.904;2023-04-26T06:03:51;98333.97;;;7.21;57.32
46392;BME280;32098;49.448;7.904;2023-04-26T06:06:26;98333.53;;;7.57;55.93
46392;BME280;32098;49.448;7.904;2023-04-26T06:08:54;98325.13;;;7.66;56.13
46392;BME280;32098;49.448;7.904;2023-04-26T06:11:22;98297.72;;;7.66;55.23
46392;BME280;32098;49.448;7.904;2023-04-26T06:13:48;98314.22;;;7.87;55.41
46392;BME280;32098;49.448;7.904;2023-04-26T06:16:16;98320.28;;;8.08;55.42
46392;BME280;32098;49.448;7.904;2023-04-26T06:18:42;98307.59;;;8.10;54.56
46392;BME280;32098;49.448;7.904;2023-04-26T06:21:10;98320.34;;;8.39;54.60
46392;BME280;32098;49.448;7.904;2023-04-26T06:23:39;98306.88;;;7.89;54.37
46392;BME280;32098;49.448;7.904;2023-04-26T06:26:06;98304.25;;;7.76;55.35
46392;BME280;32098;49.448;7.904;2023-04-26T06:28:33;98324.53;;;8.22;56.79
46392;BME280;32098;49.448;7.904;2023-04-26T06:31:01;98323.41;;;8.36;55.42
46392;BME280;32098;49.448;7.904;2023-04-26T06:33:29;98311.06;;;8.48;53.81
46392;BME280;32098;49.448;7.904;2023-04-26T06:35:56;98284.03;;;8.51;54.09
46392;BME280;32098;49.448;7.904;2023-04-26T06:38:23;98330.84;;;8.96;54.09
46392;BME280;32098;49.448;7.904;2023-04-26T06:40:50;98269.03;;;8.88;54.60
46392;BME280;32098;49.448;7.904;2023-04-26T06:43:18;98287.84;;;9.17;52.90
46392;BME280;32098;49.448;7.904;2023-04-26T06:46:05;98307.75;;;9.58;53.22
46392;BME280;32098;49.448;7.904;2023-04-26T06:48:32;98310.47;;;10.06;53.30
46392;BME280;32098;49.448;7.904;2023-04-26T06:51:08;98300.34;;;10.32;53.61
46392;BME280;32098;49.448;7.904;2023-04-26T06:53:35;98301.59;;;10.60;52.44
46392;BME280;32098;49.448;7.904;2023-04-26T06:56:02;98322.00;;;10.06;52.81
46392;BME280;32098;49.448;7.904;2023-04-26T06:58:29;98286.06;;;10.09;52.36
46392;BME280;32098;49.448;7.904;2023-04-26T07:00:57;98263.63;;;9.62;53.06
46392;BME280;32098;49.448;7.904;2023-04-26T07:03:24;98299.22;;;9.85;54.08
46392;BME280;32098;49.448;7.904;2023-04-26T07:05:51;98328.00;;;10.02;54.53
46392;BME280;32098;49.448;7.904;2023-04-26T07:08:20;98327.78;;;10.21;53.87
46392;BME280;32098;49.448;7.904;2023-04-26T07:10:46;98296.69;;;10.45;53.11
46392;BME280;32098;49.448;7.904;2023-04-26T07:13:13;98251.84;;;9.88;53.05
46392;BME280;32098;49.448;7.904;2023-04-26T07:15:40;98244.63;;;9.88;52.60
46392;BME280;32098;49.448;7.904;2023-04-26T07:18:07;98270.28;;;10.37;49.25
46392;BME280;32098;49.448;7.904;2023-04-26T07:20:34;98295.91;;;10.08;48.98
46392;BME280;32098;49.448;7.904;2023-04-26T07:23:01;98296.91;;;9.53;49.93
46392;BME280;32098;49.448;7.904;2023-04-26T07:25:28;98281.22;;;9.63;49.81
46392;BME280;32098;49.448;7.904;2023-04-26T07:27:55;98298.28;;;9.80;50.49
46392;BME280;32098;49.448;7.904;2023-04-26T07:30:21;98315.16;;;9.56;49.55
46392;BME280;32098;49.448;7.904;2023-04-26T07:32:48;98252.25;;;9.12;50.39
46392;BME280;32098;49.448;7.904;2023-04-26T07:35:15;98310.41;;;9.40;50.14
46392;BME280;32098;49.448;7.904;2023-04-26T07:37:42;98316.75;;;9.39;47.49
46392;BME280;32098;49.448;7.904;2023-04-26T07:40:10;98289.44;;;9.98;47.71
46392;BME280;32098;49.448;7.904;2023-04-26T07:42:37;98311.69;;;10.58;47.76
46392;BME280;32098;49.448;7.904;2023-04-26T07:45:11;98263.81;;;10.44;46.39
46392;BME280;32098;49.448;7.904;2023-04-26T07:47:41;98270.22;;;10.25;46.65
46392;BME280;32098;49.448;7.904;2023-04-26T07:50:09;98308.19;;;9.91;44.54
46392;BME280;32098;49.448;7.904;2023-04-26T07:52:37;98300.72;;;10.00;44.68
46392;BME280;32098;49.448;7.904;2023-04-26T07:55:05;98282.63;;;9.65;44.03
46392;BME280;32098;49.448;7.904;2023-04-26T07:57:33;98271.09;;;9.71;44.11
46392;BME280;32098;49.448;7.904;2023-04-26T07:59:59;98314.41;;;10.81;43.09
46392;BME280;32098;49.448;7.904;2023-04-26T08:02:26;98306.69;;;11.14;39.50
46392;BME280;32098;49.448;7.904;2023-04-26T08:05:09;98293.94;;;11.62;39.30
46392;BME280;32098;49.448;7.904;2023-04-26T08:07:36;98242.88;;;12.04;39.21
46392;BME280;32098;49.448;7.904;2023-04-26T08:10:03;98256.22;;;12.72;37.71
46392;BME280;32098;49.448;7.904;2023-04-26T08:12:32;98304.88;;;13.47;36.82
46392;BME280;32098;49.448;7.904;2023-04-26T08:14:59;98251.31;;;13.52;36.64
46392;BME280;32098;49.448;7.904;2023-04-26T08:17:26;98301.41;;;13.30;36.59
46392;BME280;32098;49.448;7.904;2023-04-26T08:19:53;98304.00;;;12.47;38.56
46392;BME280;32098;49.448;7.904;2023-04-26T08:22:20;98249.91;;;11.93;39.20
46392;BME280;32098;49.448;7.904;2023-04-26T08:24:51;98308.50;;;12.18;38.67
46392;BME280;32098;49.448;7.904;2023-04-26T08:27:17;98268.16;;;12.08;38.95
46392;BME280;32098;49.448;7.904;2023-04-26T08:29:44;98283.53;;;13.02;38.39
46392;BME280;32098;49.448;7.904;2023-04-26T08:32:11;98280.00;;;13.68;35.28
46392;BME280;32098;49.448;7.904;2023-04-26T08:34:38;98291.81;;;14.10;35.99
46392;BME280;32098;49.448;7.904;2023-04-26T08:37:06;98235.63;;;14.30;36.33
46392;BME280;32098;49.448;7.904;2023-04-26T08:39:33;98260.22;;;14.66;35.61
46392;BME280;32098;49.448;7.904;2023-04-26T08:42:13;98282.00;;;14.96;35.39
46392;BME280;32098;49.448;7.904;2023-04-26T08:44:41;98251.25;;;14.87;35.04
46392;BME280;32098;49.448;7.904;2023-04-26T08:47:21;98232.41;;;14.55;35.55
46392;BME280;32098;49.448;7.904;2023-04-26T08:49:53;98244.34;;;14.16;35.77
46392;BME280;32098;49.448;7.904;2023-04-26T08:52:29;98239.59;;;14.50;35.71
46392;BME280;32098;49.448;7.904;2023-04-26T08:54:58;98268.19;;;14.87;34.70
46392;BME280;32098;49.448;7.904;2023-04-26T08:57:25;98210.09;;;14.86;35.77
46392;BME280;32098;49.448;7.904;2023-04-26T08:59:54;98272.72;;;15.50;34.50
46392;BME280;32098;49.448;7.904;2023-04-26T09:02:23;98245.78;;;14.77;33.44
46392;BME280;32098;49.448;7.904;2023-04-26T09:04:50;98266.97;;;14.47;33.25
46392;BME280;32098;49.448;7.904;2023-04-26T09:07:28;98249.50;;;14.49;33.42
46392;BME280;32098;49.448;7.904;2023-04-26T09:09:57;98251.97;;;14.51;32.75
46392;BME280;32098;49.448;7.904;2023-04-26T09:12:24;98198.09;;;14.14;32.13
46392;BME280;32098;49.448;7.904;2023-04-26T09:14:51;98258.69;;;14.26;32.90
46392;BME280;32098;49.448;7.904;2023-04-26T09:17:26;98276.47;;;14.06;33.11
46392;BME280;32098;49.448;7.904;2023-04-26T09:19:53;98276.50;;;13.89;33.93
46392;BME280;32098;49.448;7.904;2023-04-26T09:22:33;98252.63;;;13.71;34.23
46392;BME280;32098;49.448;7.904;2023-04-26T09:25:05;98263.16;;;13.56;35.36
46392;BME280;32098;49.448;7.904;2023-04-26T09:27:37;98281.09;;;13.17;34.30
46392;BME280;32098;49.448;7.904;2023-04-26T09:30:17;98280.22;;;12.38;36.70
46392;BME280;32098;49.448;7.904;2023-04-26T09:33:00;98280.41;;;11.81;39.64
46392;BME280;32098;49.448;7.904;2023-04-26T09:35:38;98277.50;;;11.70;39.83
46392;BME280;32098;49.448;7.904;2023-04-26T09:38:11;98248.31;;;10.76;37.61
46392;BME280;32098;49.448;7.904;2023-04-26T09:40:45;98254.94;;;10.74;39.64
46392;BME280;32098;49.448;7.904;2023-04-26T09:43:17;98281.72;;;11.20;38.82
46392;BME280;32098;49.448;7.904;2023-04-26T09:48:31;98252.78;;;10.11;39.26
46392;BME280;32098;49.448;7.904;2023-04-26T09:53:32;98269.09;;;9.67;40.16
46392;BME280;32098;49.448;7.904;2023-04-26T09:56:16;98202.44;;;9.31;41.51
46392;BME280;32098;49.448;7.904;2023-04-26T09:58:56;98271.91;;;9.72;37.67
46392;BME280;32098;49.448;7.904;2023-04-26T10:01:31;98240.28;;;10.05;37.43
46392;BME280;32098;49.448;7.904;2023-04-26T10:04:00;98268.41;;;10.79;35.65
46392;BME280;32098;49.448;7.904;2023-04-26T10:06:27;98256.38;;;11.11;36.48
46392;BME280;32098;49.448;7.904;2023-04-26T10:08:55;98261.84;;;11.62;36.29
46392;BME280;32098;49.448;7.904;2023-04-26T10:11:23;98278.63;;;11.35;36.76
46392;BME280;32098;49.448;7.904;2023-04-26T10:13:51;98265.44;;;11.10;37.57
46392;BME280;32098;49.448;7.904;2023-04-26T10:16:19;98264.03;;;10.96;37.50
46392;BME280;32098;49.448;7.904;2023-04-26T10:18:47;98222.19;;;10.67;38.44
46392;BME280;32098;49.448;7.904;2023-04-26T10:21:28;98265.00;;;11.36;35.64
46392;BME280;32098;49.448;7.904;2023-04-26T10:23:58;98232.66;;;11.26;36.83
46392;BME280;32098;49.448;7.904;2023-04-26T10:26:47;98259.19;;;11.39;36.88
46392;BME280;32098;49.448;7.904;2023-04-26T10:29:19;98245.44;;;11.24;35.79
46392;BME280;32098;49.448;7.904;2023-04-26T10:34:33;98216.88;;;11.36;34.85
46392;BME280;32098;49.448;7.904;2023-04-26T10:37:14;98231.56;;;11.73;37.62
46392;BME280;32098;49.448;7.904;2023-04-26T10:39:43;98237.44;;;11.36;38.07
46392;BME280;32098;49.448;7.904;2023-04-26T10:42:23;98231.53;;;11.45;36.24
46392;BME280;32098;49.448;7.904;2023-04-26T10:47:30;98227.78;;;11.23;36.36
46392;BME280;32098;49.448;7.904;2023-04-26T10:50:10;98194.31;;;10.86;37.60
46392;BME280;32098;49.448;7.904;2023-04-26T10:55:42;98201.75;;;11.19;39.26
46392;BME280;32098;49.448;7.904;2023-04-26T10:58:28;98142.22;;;11.23;37.44
46392;BME280;32098;49.448;7.904;2023-04-26T11:01:09;98186.19;;;11.27;36.71
46392;BME280;32098;49.448;7.904;2023-04-26T11:03:44;98199.00;;;12.05;35.42
46392;BME280;32098;49.448;7.904;2023-04-26T11:09:38;98201.81;;;12.71;35.28
46392;BME280;32098;49.448;7.904;2023-04-26T11:12:10;98198.31;;;12.87;33.89
46392;BME280;32098;49.448;7.904;2023-04-26T11:14:39;98196.84;;;12.96;32.90
46392;BME280;32098;49.448;7.904;2023-04-26T11:17:10;98196.31;;;13.16;32.85
46392;BME280;32098;49.448;7.904;2023-04-26T11:19:37;98189.88;;;12.95;34.66
46392;BME280;32098;49.448;7.904;2023-04-26T11:22:06;98170.81;;;13.14;34.27
46392;BME280;32098;49.448;7.904;2023-04-26T11:24:34;98104.97;;;13.01;32.68
46392;BME280;32098;49.448;7.904;2023-04-26T11:27:07;98153.00;;;13.46;32.63
46392;BME280;32098;49.448;7.904;2023-04-26T11:29:34;98165.88;;;13.87;33.51
46392;BME280;32098;49.448;7.904;2023-04-26T11:32:01;98147.72;;;13.73;31.20
46392;BME280;32098;49.448;7.904;2023-04-26T11:34:36;98163.81;;;13.94;31.47
46392;BME280;32098;49.448;7.904;2023-04-26T11:37:07;98151.81;;;14.02;31.80
46392;BME280;32098;49.448;7.904;2023-04-26T11:39:34;98164.47;;;14.33;32.64
46392;BME280;32098;49.448;7.904;2023-04-26T11:42:09;98167.38;;;14.53;33.74
46392;BME280;32098;49.448;7.904;2023-04-26T11:44:39;98151.59;;;14.67;34.47
46392;BME280;32098;49.448;7.904;2023-04-26T11:47:07;98166.63;;;14.63;33.63
46392;BME280;32098;49.448;7.904;2023-04-26T11:49:36;98139.03;;;13.87;31.99
46392;BME280;32098;49.448;7.904;2023-04-26T11:52:05;98086.66;;;13.15;32.03
46392;BME280;32098;49.448;7.904;2023-04-26T11:54:33;98145.28;;;12.89;32.53
46392;BME280;32098;49.448;7.904;2023-04-26T11:57:12;98161.16;;;11.85;33.24
46392;BME280;32098;49.448;7.904;2023-04-26T11:59:42;98163.88;;;11.33;33.69
46392;BME280;32098;49.448;7.904;2023-04-26T12:02:09;98162.69;;;11.81;34.72
46392;BME280;32098;49.448;7.904;2023-04-26T12:04:36;98131.38;;;11.81;34.99
46392;BME280;32098;49.448;7.904;2023-04-26T12:07:05;98121.78;;;11.97;35.35
46392;BME280;32098;49.448;7.904;2023-04-26T12:09:33;98111.88;;;11.52;34.44
46392;BME280;32098;49.448;7.904;2023-04-26T12:12:00;98156.28;;;11.82;34.86
46392;BME280;32098;49.448;7.904;2023-04-26T12:14:31;98137.06;;;12.13;35.17
46392;BME280;32098;49.448;7.904;2023-04-26T12:17:02;98151.59;;;12.33;33.55
46392;BME280;32098;49.448;7.904;2023-04-26T12:19:33;98163.72;;;12.69;33.29
46392;BME280;32098;49.448;7.904;2023-04-26T12:22:02;98138.06;;;12.73;33.39
46392;BME280;32098;49.448;7.904;2023-04-26T12:24:30;98151.13;;;12.86;32.76
46392;BME280;32098;49.448;7.904;2023-04-26T12:27:03;98147.78;;;12.96;31.73
46392;BME280;32098;49.448;7.904;2023-04-26T12:29:31;98153.66;;;12.76;32.00
46392;BME280;32098;49.448;7.904;2023-04-26T12:31:59;98122.41;;;12.65;32.54
46392;BME280;32098;49.448;7.904;2023-04-26T12:34:26;98092.19;;;12.53;33.37
46392;BME280;32098;49.448;7.904;2023-04-26T12:36:53;98147.25;;;12.77;32.24
46392;BME280;32098;49.448;7.904;2023-04-26T12:39:20;98109.44;;;11.96;32.38
46392;BME280;32098;49.448;7.904;2023-04-26T12:41:47;98145.97;;;12.02;34.12
46392;BME280;32098;49.448;7.904;2023-04-26T12:44:14;98155.47;;;11.81;34.41
46392;BME280;32098;49.448;7.904;2023-04-26T12:46:42;98141.91;;;11.20;36.62
46392;BME280;32098;49.448;7.904;2023-04-26T12:49:09;98159.25;;;10.94;36.82
46392;BME280;32098;49.448;7.904;2023-04-26T12:51:35;98139.16;;;10.91;37.15
46392;BME280;32098;49.448;7.904;2023-04-26T12:54:02;98120.91;;;11.51;37.99
46392;BME280;32098;49.448;7.904;2023-04-26T12:56:29;98143.75;;;11.70;37.05
46392;BME280;32098;49.448;7.904;2023-04-26T12:58:56;98107.59;;;11.28;36.63
46392;BME280;32098;49.448;7.904;2023-04-26T13:01:23;98129.03;;;11.56;35.59
46392;BME280;32098;49.448;7.904;2023-04-26T13:03:50;98134.50;;;11.61;36.89
46392;BME280;32098;49.448;7.904;2023-04-26T13:06:17;98135.94;;;11.52;37.39
46392;BME280;32098;49.448;7.904;2023-04-26T13:08:43;98076.84;;;11.14;37.92
46392;BME280;32098;49.448;7.904;2023-04-26T13:11:16;98120.84;;;11.23;37.83
46392;BME280;32098;49.448;7.904;2023-04-26T13:13:43;98123.78;;;11.22;37.55
46392;BME280;32098;49.448;7.904;2023-04-26T13:16:10;98123.50;;;11.46;38.34
46392;BME280;32098;49.448;7.904;2023-04-26T13:18:40;98014.50;;;10.22;39.10
46392;BME280;32098;49.448;7.904;2023-04-26T13:21:08;98128.09;;;10.88;41.84
46392;BME280;32098;49.448;7.904;2023-04-26T13:23:35;98131.34;;;11.01;40.60
46392;BME280;32098;49.448;7.904;2023-04-26T13:26:01;98097.81;;;10.71;41.22
46392;BME280;32098;49.448;7.904;2023-04-26T13:28:29;98041.41;;;10.32;42.12
46392;BME280;32098;49.448;7.904;2023-04-26T13:30:55;98150.75;;;10.97;41.03